createdAt,value
2023-04-06T00:00:46.560Z,2.80
2023-04-06T00:04:49.456Z,2.70
2023-04-06T00:08:53.716Z,2.60
2023-04-06T00:12:57.628Z,2.70
2023-04-06T00:17:00.666Z,2.60
2023-04-06T00:21:03.752Z,2.40
2023-04-06T00:25:08.804Z,2.60
2023-04-06T00:29:11.757Z,2.30
2023-04-06T00:33:14.773Z,2.40
2023-04-06T00:37:17.673Z,2.40
2023-04-06T00:41:22.368Z,2.30
2023-04-06T00:45:25.310Z,2.10
2023-04-06T00:49:28.546Z,2.10
2023-04-06T00:53:31.528Z,2.10
2023-04-06T00:57:38.010Z,2.40
2023-04-06T01:01:41.065Z,2.10
2023-04-06T01:05:59.688Z,2.10
2023-04-06T01:10:11.136Z,1.90
2023-04-06T01:14:16.523Z,2.10
2023-04-06T01:18:29.300Z,1.90
2023-04-06T01:22:49.280Z,1.70
2023-04-06T01:26:53.192Z,1.90
2023-04-06T01:30:56.158Z,1.90
2023-04-06T01:35:18.239Z,1.70
2023-04-06T01:39:32.504Z,1.70
2023-04-06T01:43:38.535Z,1.70
2023-04-06T01:47:44.990Z,1.70
2023-04-06T01:51:49.231Z,1.60
2023-04-06T01:55:54.086Z,1.60
2023-04-06T02:00:01.642Z,1.70
2023-04-06T02:04:16.461Z,1.40
2023-04-06T02:08:22.073Z,1.30
2023-04-06T02:12:26.849Z,1.20
2023-04-06T02:16:31.529Z,1.30
2023-04-06T02:20:34.983Z,1.10
2023-04-06T02:24:37.958Z,1.20
2023-04-06T02:28:42.291Z,1.10
2023-04-06T02:32:45.394Z,1.10
2023-04-06T02:36:49.028Z,1.10
2023-04-06T02:40:51.987Z,1.00
2023-04-06T02:44:59.404Z,1.00
2023-04-06T02:49:07.723Z,1.00
2023-04-06T02:53:12.256Z,1.20
2023-04-06T02:57:16.627Z,1.10
2023-04-06T03:01:23.458Z,1.10
2023-04-06T03:05:32.815Z,1.10
2023-04-06T03:09:36.916Z,1.10
2023-04-06T03:13:41.109Z,1.10
2023-04-06T03:17:45.779Z,1.30
2023-04-06T03:22:02.816Z,1.20
2023-04-06T03:26:06.298Z,1.10
2023-04-06T03:30:10.036Z,1.10
2023-04-06T03:34:16.145Z,0.70
2023-04-06T03:38:19.109Z,0.40
2023-04-06T03:42:22.054Z,0.40
2023-04-06T03:46:32.757Z,0.40
2023-04-06T03:50:37.922Z,0.50
2023-04-06T03:54:42.273Z,0.40
2023-04-06T03:58:50.408Z,0.30
2023-04-06T04:02:53.465Z,0.30
2023-04-06T04:06:59.008Z,0.30
2023-04-06T04:11:02.077Z,0.50
2023-04-06T04:15:06.339Z,0.50
2023-04-06T04:19:09.602Z,0.50
2023-04-06T04:23:14.122Z,0.10
2023-04-06T04:27:17.206Z,0.20
2023-04-06T04:31:22.845Z,0.20
2023-04-06T04:35:30.498Z,0.10
2023-04-06T04:39:34.883Z,0.20
2023-04-06T04:43:42.101Z,0.10
2023-04-06T04:47:46.672Z,0.20
2023-04-06T04:51:53.564Z,0.30
2023-04-06T04:56:06.340Z,0.40
2023-04-06T05:00:10.345Z,0.20
2023-04-06T05:04:16.196Z,0.20
2023-04-06T05:08:19.881Z,0.20
2023-04-06T05:12:26.239Z,0.20
2023-04-06T05:16:39.349Z,0.10
2023-04-06T05:20:42.398Z,0.20
2023-04-06T05:24:45.284Z,0.20
2023-04-06T05:28:49.520Z,0.20
2023-04-06T05:32:54.278Z,0.30
2023-04-06T05:36:59.523Z,0.40
2023-04-06T05:41:02.747Z,0.50
2023-04-06T05:45:17.404Z,0.50
2023-04-06T05:49:23.920Z,0.60
2023-04-06T05:53:27.644Z,0.70
2023-04-06T05:57:33.993Z,0.90
2023-04-06T06:01:40.938Z,2.00
2023-04-06T06:05:44.181Z,4.00
2023-04-06T06:09:53.724Z,5.10
2023-04-06T06:14:01.664Z,6.00
2023-04-06T06:18:10.486Z,6.30
2023-04-06T06:22:14.861Z,6.70
2023-04-06T06:26:22.746Z,7.30
2023-04-06T06:30:27.107Z,7.80
2023-04-06T06:34:31.468Z,7.60
2023-04-06T06:38:36.983Z,7.80
2023-04-06T06:42:41.228Z,7.20
2023-04-06T06:46:53.406Z,7.10
2023-04-06T06:50:57.747Z,7.10
2023-04-06T06:55:01.134Z,8.30
2023-04-06T06:59:04.117Z,7.60
2023-04-06T07:03:07.238Z,7.50
2023-04-06T07:07:11.721Z,11.10
2023-04-06T07:11:14.663Z,11.10
2023-04-06T07:15:18.432Z,11.60
2023-04-06T07:19:21.687Z,14.40
2023-04-06T07:23:26.038Z,16.30
2023-04-06T07:27:28.974Z,15.80
2023-04-06T07:31:32.395Z,15.90
2023-04-06T07:35:37.578Z,17.90
2023-04-06T07:39:43.261Z,17.70
2023-04-06T07:43:46.968Z,16.70
2023-04-06T07:47:50.829Z,15.50
2023-04-06T07:51:53.969Z,17.70
2023-04-06T07:55:58.436Z,20.10
2023-04-06T08:00:01.683Z,21.60
2023-04-06T08:04:15.047Z,20.80
2023-04-06T08:08:18.014Z,20.40
2023-04-06T08:12:22.329Z,20.50
2023-04-06T08:16:25.494Z,22.10
2023-04-06T08:20:28.419Z,23.70
2023-04-06T08:24:33.370Z,25.50
2023-04-06T08:28:37.748Z,26.40
2023-04-06T08:32:42.214Z,26.40
2023-04-06T08:36:46.552Z,26.30
2023-04-06T08:40:51.943Z,28.00
2023-04-06T08:44:57.194Z,28.80
2023-04-06T08:49:01.060Z,29.90
2023-04-06T08:53:04.245Z,28.90
2023-04-06T08:57:07.380Z,29.20
2023-04-06T09:01:14.942Z,31.00
2023-04-06T09:05:18.358Z,31.70
2023-04-06T09:09:24.204Z,32.70
2023-04-06T09:13:27.707Z,33.00
2023-04-06T09:17:33.722Z,32.00
2023-04-06T09:21:36.841Z,29.40
2023-04-06T09:25:39.735Z,29.90
2023-04-06T09:29:43.134Z,32.00
2023-04-06T09:33:47.989Z,32.80
2023-04-06T09:37:51.859Z,32.90
2023-04-06T09:41:56.735Z,32.10
2023-04-06T09:46:03.918Z,31.30
2023-04-06T09:50:11.225Z,31.40
2023-04-06T09:54:18.118Z,29.00
2023-04-06T09:58:27.238Z,29.90
2023-04-06T10:02:40.131Z,28.30
2023-04-06T10:06:45.540Z,27.40
2023-04-06T10:10:48.898Z,26.70
2023-04-06T10:14:52.291Z,25.30
2023-04-06T10:19:00.899Z,23.50
2023-04-06T10:23:10.488Z,22.60
2023-04-06T10:27:13.379Z,21.80
2023-04-06T10:31:16.404Z,21.40
2023-04-06T10:35:19.365Z,21.50
2023-04-06T10:39:28.922Z,20.80
2023-04-06T10:43:37.049Z,20.40
2023-04-06T10:47:42.284Z,20.00
2023-04-06T10:51:45.264Z,19.60
2023-04-06T10:55:51.878Z,19.10
2023-04-06T10:59:55.658Z,20.00
2023-04-06T11:04:00.488Z,20.00
2023-04-06T11:08:03.579Z,19.30
2023-04-06T11:12:08.453Z,18.90
2023-04-06T11:16:17.959Z,18.80
2023-04-06T11:20:21.063Z,19.10
2023-04-06T11:24:25.236Z,20.10
2023-04-06T11:28:29.672Z,21.80
2023-04-06T11:32:42.427Z,21.00
2023-04-06T11:36:46.490Z,20.50
2023-04-06T11:40:54.521Z,24.40
2023-04-06T11:44:59.595Z,27.20
2023-04-06T11:49:03.347Z,28.30
2023-04-06T11:53:06.377Z,30.00
2023-04-06T11:57:10.257Z,30.70
2023-04-06T12:01:14.595Z,32.50
2023-04-06T12:05:17.662Z,31.00
2023-04-06T12:09:20.600Z,30.30
2023-04-06T12:13:23.545Z,32.60
2023-04-06T12:17:27.888Z,28.40
2023-04-06T12:21:31.969Z,25.20
2023-04-06T12:25:34.863Z,23.20
2023-04-06T12:29:37.984Z,22.20
2023-04-06T12:33:42.293Z,24.90
2023-04-06T12:37:45.459Z,28.80
2023-04-06T12:41:48.420Z,30.50
2023-04-06T12:45:52.001Z,28.80
2023-04-06T12:49:56.340Z,26.80
2023-04-06T12:53:59.407Z,24.80
2023-04-06T12:58:02.358Z,22.70
2023-04-06T13:02:06.391Z,23.20
2023-04-06T13:06:11.778Z,25.00
2023-04-06T13:10:14.739Z,25.50
2023-04-06T13:14:18.607Z,23.40
2023-04-06T13:18:21.853Z,22.20
2023-04-06T13:22:26.156Z,21.20
2023-04-06T13:26:29.567Z,20.10
2023-04-06T13:30:32.497Z,19.30
2023-04-06T13:34:35.422Z,18.70
2023-04-06T13:38:40.848Z,18.40
2023-04-06T13:42:45.936Z,18.20
2023-04-06T13:46:48.847Z,18.90
2023-04-06T13:50:51.888Z,21.20
2023-04-06T13:54:56.190Z,21.00
2023-04-06T13:58:59.815Z,19.80
2023-04-06T14:03:02.770Z,19.30
2023-04-06T14:07:08.249Z,19.90
2023-04-06T14:11:14.886Z,19.70
2023-04-06T14:15:17.981Z,19.30
2023-04-06T14:19:21.748Z,18.50
2023-04-06T14:23:26.818Z,18.00
2023-04-06T14:27:31.178Z,18.00
2023-04-06T14:31:34.708Z,17.60
2023-04-06T14:35:40.481Z,17.40
2023-04-06T14:39:43.302Z,17.50
2023-04-06T14:43:48.131Z,17.70
2023-04-06T14:47:51.618Z,17.90
2023-04-06T14:51:54.515Z,17.80
2023-04-06T14:55:58.175Z,17.70
2023-04-06T15:00:02.524Z,17.80
2023-04-06T15:04:05.677Z,17.50
2023-04-06T15:08:10.238Z,17.40
2023-04-06T15:12:13.046Z,17.00
2023-04-06T15:16:17.511Z,16.50
2023-04-06T15:20:20.423Z,16.20
2023-04-06T15:24:23.294Z,16.00
2023-04-06T15:28:26.514Z,15.90
2023-04-06T15:32:30.771Z,15.80
2023-04-06T15:36:33.952Z,15.90
2023-04-06T15:40:43.726Z,16.10
2023-04-06T15:44:46.748Z,16.00
2023-04-06T15:48:50.925Z,16.00
2023-04-06T15:52:53.704Z,15.80
2023-04-06T15:56:56.948Z,15.70
2023-04-06T16:00:59.836Z,15.70
2023-04-06T16:05:04.253Z,15.80
2023-04-06T16:09:07.155Z,15.80
2023-04-06T16:13:10.369Z,15.60
2023-04-06T16:17:13.343Z,15.30
2023-04-06T16:21:18.209Z,15.10
2023-04-06T16:25:21.082Z,14.80
2023-04-06T16:29:23.967Z,14.80
2023-04-06T16:33:26.745Z,14.70
2023-04-06T16:37:31.421Z,14.60
2023-04-06T16:41:34.619Z,14.50
2023-04-06T16:45:37.979Z,14.30
2023-04-06T16:49:41.244Z,14.20
2023-04-06T16:53:46.066Z,14.00
2023-04-06T16:57:49.290Z,13.90
2023-04-06T17:01:52.233Z,13.80
2023-04-06T17:05:55.152Z,13.70
2023-04-06T17:10:00.556Z,13.60
2023-04-06T17:14:03.340Z,13.40
2023-04-06T17:18:06.333Z,13.30
2023-04-06T17:22:09.290Z,13.20
2023-04-06T17:26:13.627Z,13.20
2023-04-06T17:30:18.344Z,13.10
2023-04-06T17:34:21.459Z,13.00
2023-04-06T17:38:24.307Z,12.90
2023-04-06T17:42:28.579Z,12.80
2023-04-06T17:46:31.534Z,12.60
2023-04-06T17:50:34.399Z,12.50
2023-04-06T17:54:37.833Z,12.40
2023-04-06T17:58:42.130Z,12.20
2023-04-06T18:02:45.092Z,12.10
2023-04-06T18:06:48.035Z,12.00
2023-04-06T18:10:51.222Z,11.90
2023-04-06T18:14:55.582Z,12.00
2023-04-06T18:18:58.857Z,11.80
2023-04-06T18:23:01.763Z,11.60
2023-04-06T18:27:04.760Z,11.50
2023-04-06T18:31:09.058Z,11.40
2023-04-06T18:35:12.277Z,11.30
2023-04-06T18:39:15.542Z,11.20
2023-04-06T18:43:18.669Z,11.00
2023-04-06T18:47:22.856Z,10.90
2023-04-06T18:51:29.664Z,10.70
2023-04-06T18:55:33.605Z,10.60
2023-04-06T18:59:36.492Z,10.60
2023-04-06T19:03:41.078Z,10.60
2023-04-06T19:07:47.976Z,10.40
2023-04-06T19:11:50.858Z,10.20
2023-04-06T19:15:56.075Z,10.20
2023-04-06T19:20:00.955Z,10.00
2023-04-06T19:24:03.821Z,9.80
2023-04-06T19:28:08.919Z,9.90
2023-04-06T19:32:12.666Z,9.40
2023-04-06T19:36:17.039Z,9.20
2023-04-06T19:40:19.972Z,9.20
2023-04-06T19:44:23.096Z,9.10
2023-04-06T19:48:26.286Z,8.80
2023-04-06T19:52:31.472Z,8.80
2023-04-06T19:56:34.381Z,8.90
2023-04-06T20:00:37.210Z,8.60
2023-04-06T20:04:40.457Z,8.50
2023-04-06T20:08:45.268Z,8.50
2023-04-06T20:12:48.699Z,8.60
2023-04-06T20:16:51.624Z,8.50
2023-04-06T20:20:54.885Z,8.40
2023-04-06T20:24:59.177Z,8.20
2023-04-06T20:29:01.991Z,8.20
2023-04-06T20:33:05.005Z,8.20
2023-04-06T20:37:08.775Z,7.90
2023-04-06T20:41:13.044Z,7.90
2023-04-06T20:45:15.873Z,7.60
2023-04-06T20:49:22.046Z,7.80
2023-04-06T20:53:24.931Z,7.60
2023-04-06T20:57:29.258Z,7.90
2023-04-06T21:01:32.262Z,7.80
2023-04-06T21:05:35.174Z,7.70
2023-04-06T21:09:39.489Z,7.50
2023-04-06T21:13:43.691Z,7.50
2023-04-06T21:17:46.640Z,7.70
2023-04-06T21:21:49.497Z,7.40
2023-04-06T21:25:55.282Z,7.40
2023-04-06T21:29:59.517Z,7.50
2023-04-06T21:34:02.355Z,7.20
2023-04-06T21:38:05.163Z,7.20
2023-04-06T21:42:08.006Z,7.30
2023-04-06T21:46:12.202Z,7.30
2023-04-06T21:50:15.098Z,7.20
2023-04-06T21:54:18.275Z,7.20
2023-04-06T21:58:21.644Z,7.40
2023-04-06T22:02:26.004Z,7.30
2023-04-06T22:06:29.982Z,7.40
2023-04-06T22:10:32.884Z,7.60
2023-04-06T22:14:36.753Z,7.50
2023-04-06T22:18:41.069Z,7.50
2023-04-06T22:22:43.923Z,7.40
2023-04-06T22:26:46.692Z,7.50
2023-04-06T22:30:49.492Z,7.40
2023-04-06T22:34:53.680Z,7.60
2023-04-06T22:38:56.732Z,7.70
2023-04-06T22:42:59.629Z,7.80
2023-04-06T22:47:02.537Z,7.80
2023-04-06T22:51:07.000Z,7.30
2023-04-06T22:55:10.197Z,7.30
2023-04-06T22:59:13.042Z,7.50
2023-04-06T23:03:15.914Z,7.50
2023-04-06T23:07:20.194Z,7.50
2023-04-06T23:11:23.289Z,7.40
2023-04-06T23:15:26.156Z,7.30
2023-04-06T23:19:28.952Z,7.10
2023-04-06T23:23:33.183Z,6.90
2023-04-06T23:27:35.961Z,7.10
2023-04-06T23:31:38.817Z,6.90
2023-04-06T23:35:41.615Z,6.90
2023-04-06T23:39:48.249Z,6.70
2023-04-06T23:43:51.062Z,6.80
2023-04-06T23:47:53.863Z,6.90
2023-04-06T23:51:56.775Z,6.80
2023-04-06T23:56:01.172Z,6.80
